createdAt,value
2018-08-10T00:01:02.345Z,25.7
2018-08-10T00:02:06.987Z,25.7
2018-08-10T00:03:12.518Z,25.7
2018-08-10T00:04:17.956Z,25.7
2018-08-10T00:05:23.396Z,25.7
2018-08-10T00:06:29.308Z,25.7
2018-08-10T00:07:34.785Z,25.7
2018-08-10T00:08:39.666Z,25.7
2018-08-10T00:09:45.365Z,25.7
2018-08-10T00:10:50.270Z,25.7
2018-08-10T00:11:55.701Z,25.7
2018-08-10T00:13:00.693Z,25.7
2018-08-10T00:14:05.077Z,25.7
2018-08-10T00:15:10.277Z,25.7
2018-08-10T00:16:16.198Z,25.7
2018-08-10T00:17:21.455Z,25.7
2018-08-10T00:18:26.630Z,25.7
2018-08-10T00:19:32.228Z,25.7
2018-08-10T00:20:37.144Z,25.7
2018-08-10T00:21:42.318Z,25.7
2018-08-10T00:22:47.496Z,25.7
2018-08-10T00:23:52.988Z,25.7
2018-08-10T00:24:58.692Z,25.7
2018-08-10T00:26:03.600Z,25.7
2018-08-10T00:27:08.181Z,25.7
2018-08-10T00:28:13.333Z,25.7
2018-08-10T00:29:18.481Z,25.7
2018-08-10T00:30:23.909Z,25.7
2018-08-10T00:31:29.790Z,25.7
2018-08-10T00:32:34.973Z,25.7
2018-08-10T00:33:40.942Z,25.7
2018-08-10T00:34:46.087Z,25.7
2018-08-10T00:35:51.033Z,25.7
2018-08-10T00:36:56.208Z,25.7
2018-08-10T00:38:01.644Z,25.7
2018-08-10T00:39:06.600Z,25.7
2018-08-10T00:40:12.064Z,25.7
2018-08-10T00:41:17.494Z,25.7
2018-08-10T00:42:22.994Z,25.7
2018-08-10T00:43:43.052Z,25.7
2018-08-10T00:44:48.484Z,25.7
2018-08-10T00:45:53.594Z,25.7
2018-08-10T00:46:58.736Z,25.7
2018-08-10T00:48:04.264Z,25.7
2018-08-10T00:49:10.023Z,25.7
2018-08-10T00:50:14.904Z,25.7
2018-08-10T00:51:20.343Z,25.7
2018-08-10T00:52:25.664Z,25.7
2018-08-10T00:53:30.528Z,25.7
2018-08-10T00:54:36.041Z,25.7
2018-08-10T00:55:41.219Z,25.7
2018-08-10T00:56:46.373Z,25.7
2018-08-10T00:57:51.897Z,25.7
2018-08-10T00:58:57.096Z,25.7
2018-08-10T01:00:02.621Z,25.7
2018-08-10T01:01:07.917Z,25.7
2018-08-10T01:02:12.504Z,25.7
2018-08-10T01:03:17.439Z,25.7
2018-08-10T01:04:23.190Z,25.7
2018-08-10T01:05:28.064Z,25.7
2018-08-10T01:06:33.472Z,25.7
2018-08-10T01:07:38.633Z,25.7
2018-08-10T01:08:43.947Z,25.7
2018-08-10T01:09:49.682Z,25.7
2018-08-10T01:10:55.110Z,25.7
2018-08-10T01:12:00.282Z,25.7
2018-08-10T01:13:05.166Z,25.7
2018-08-10T01:14:10.760Z,25.7
2018-08-10T01:15:16.274Z,25.7
2018-08-10T01:16:22.051Z,25.7
2018-08-10T01:17:26.660Z,25.7
2018-08-10T01:18:32.107Z,25.7
2018-08-10T01:19:37.254Z,25.7
2018-08-10T01:20:42.432Z,25.7
2018-08-10T01:21:47.755Z,25.7
2018-08-10T01:22:52.977Z,25.7
2018-08-10T01:23:58.406Z,25.7
2018-08-10T01:25:03.828Z,25.7
2018-08-10T01:26:08.986Z,25.7
2018-08-10T01:27:13.576Z,25.7
2018-08-10T01:28:18.737Z,25.7
2018-08-10T01:29:24.445Z,25.7
2018-08-10T01:30:29.744Z,25.7
2018-08-10T01:31:34.951Z,25.7
2018-08-10T01:32:40.393Z,25.7
2018-08-10T01:33:45.665Z,25.7
2018-08-10T01:34:51.171Z,25.7
2018-08-10T01:35:56.688Z,25.7
2018-08-10T01:37:01.954Z,25.7
2018-08-10T01:38:06.585Z,25.7
2018-08-10T01:39:11.741Z,25.7
2018-08-10T01:40:17.138Z,25.7
2018-08-10T01:41:22.651Z,25.7
2018-08-10T01:42:27.761Z,25.7
2018-08-10T01:43:33.203Z,25.7
2018-08-10T01:44:38.355Z,25.7
2018-08-10T01:45:44.036Z,25.7
2018-08-10T01:46:49.274Z,25.6
2018-08-10T01:47:54.737Z,25.7
2018-08-10T01:49:00.594Z,25.7
2018-08-10T01:50:05.507Z,25.7
2018-08-10T01:51:10.469Z,25.7
2018-08-10T01:52:16.158Z,25.7
2018-08-10T01:53:21.137Z,25.7
2018-08-10T01:54:26.985Z,25.6
2018-08-10T01:55:32.145Z,25.7
2018-08-10T01:56:37.115Z,25.7
2018-08-10T01:57:42.824Z,25.7
2018-08-10T01:58:48.251Z,25.7
2018-08-10T01:59:53.691Z,25.7
2018-08-10T02:00:59.465Z,25.7
2018-08-10T02:02:04.052Z,25.7
2018-08-10T02:03:09.225Z,25.7
2018-08-10T02:04:14.658Z,25.7
2018-08-10T02:05:19.800Z,25.7
2018-08-10T02:07:45.535Z,25.7
2018-08-10T02:08:50.768Z,25.6
2018-08-10T02:09:56.637Z,25.7
2018-08-10T02:11:01.849Z,25.7
2018-08-10T02:12:06.717Z,25.7
2018-08-10T02:13:11.993Z,25.7
2018-08-10T02:14:16.943Z,25.7
2018-08-10T02:15:21.837Z,25.7
2018-08-10T02:16:27.958Z,25.7
2018-08-10T02:17:33.176Z,25.7
2018-08-10T02:18:38.781Z,25.7
2018-08-10T02:19:43.929Z,25.7
2018-08-10T02:20:49.084Z,25.6
2018-08-10T02:21:54.514Z,25.6
2018-08-10T02:22:59.369Z,25.6
2018-08-10T02:24:04.331Z,25.7
2018-08-10T02:25:09.004Z,25.6
2018-08-10T02:26:14.165Z,25.6
2018-08-10T02:27:19.315Z,25.6
2018-08-10T02:28:24.153Z,25.6
2018-08-10T02:29:29.393Z,25.6
2018-08-10T02:30:35.177Z,25.6
2018-08-10T02:31:39.785Z,25.7
2018-08-10T02:32:44.653Z,25.6
2018-08-10T02:33:50.043Z,25.6
2018-08-10T02:34:55.247Z,25.6
2018-08-10T02:36:00.466Z,25.6
2018-08-10T02:37:06.012Z,25.6
2018-08-10T02:38:11.492Z,25.7
2018-08-10T02:39:16.711Z,25.6
2018-08-10T02:40:21.938Z,25.6
2018-08-10T02:41:26.864Z,25.6
2018-08-10T02:42:32.527Z,25.6
2018-08-10T02:43:37.673Z,25.7
2018-08-10T02:44:42.921Z,25.7
2018-08-10T02:45:48.291Z,25.6
2018-08-10T02:46:53.430Z,25.6
2018-08-10T02:47:58.354Z,25.6
2018-08-10T02:49:04.106Z,25.6
2018-08-10T02:50:09.251Z,25.6
2018-08-10T02:51:14.450Z,25.6
2018-08-10T02:52:20.165Z,25.6
2018-08-10T02:53:25.596Z,25.6
2018-08-10T02:54:31.077Z,25.6
2018-08-10T02:55:35.695Z,25.6
2018-08-10T02:56:41.209Z,25.6
2018-08-10T02:57:47.024Z,25.6
2018-08-10T02:58:52.500Z,25.6
2018-08-10T02:59:57.965Z,25.6
2018-08-10T03:01:02.809Z,25.6
2018-08-10T03:02:07.718Z,25.6
2018-08-10T03:03:12.867Z,25.6
2018-08-10T03:04:17.823Z,25.6
2018-08-10T03:05:23.272Z,25.6
2018-08-10T03:06:29.159Z,25.6
2018-08-10T03:07:34.311Z,25.6
2018-08-10T03:08:39.764Z,25.6
2018-08-10T03:09:45.167Z,25.6
2018-08-10T03:10:50.339Z,25.6
2018-08-10T03:11:55.219Z,25.6
2018-08-10T03:13:00.443Z,25.6
2018-08-10T03:14:05.370Z,25.6
2018-08-10T03:15:10.797Z,25.6
2018-08-10T03:16:16.324Z,25.6
2018-08-10T03:17:21.257Z,25.6
2018-08-10T03:19:46.568Z,25.6
2018-08-10T03:20:52.088Z,25.6
2018-08-10T03:21:57.911Z,25.6
2018-08-10T03:23:02.606Z,25.6
2018-08-10T03:24:07.558Z,25.6
2018-08-10T03:25:13.131Z,25.6
2018-08-10T03:26:18.298Z,25.6
2018-08-10T03:27:22.890Z,25.6
2018-08-10T03:28:29.177Z,25.6
2018-08-10T03:29:34.369Z,25.6
2018-08-10T03:30:39.929Z,25.6
2018-08-10T03:31:45.099Z,25.6
2018-08-10T03:32:50.565Z,25.6
2018-08-10T03:33:56.030Z,25.6
2018-08-10T03:35:00.906Z,25.6
2018-08-10T03:36:05.506Z,25.6
2018-08-10T03:37:10.636Z,25.6
2018-08-10T03:38:16.067Z,25.6
2018-08-10T03:39:21.501Z,25.5
2018-08-10T03:40:27.588Z,25.5
2018-08-10T03:41:32.459Z,25.5
2018-08-10T03:42:38.288Z,25.6
2018-08-10T03:43:43.499Z,25.5
2018-08-10T03:44:48.648Z,25.5
2018-08-10T03:45:53.828Z,25.5
2018-08-10T03:46:59.026Z,25.5
2018-08-10T03:48:04.444Z,25.5
2018-08-10T03:49:09.993Z,25.5
2018-08-10T03:50:15.249Z,25.5
2018-08-10T03:51:20.382Z,25.5
2018-08-10T03:52:40.835Z,25.5
2018-08-10T03:53:46.266Z,25.5
2018-08-10T03:54:52.112Z,25.5
2018-08-10T03:55:57.265Z,25.5
2018-08-10T03:57:02.696Z,25.5
2018-08-10T03:58:08.417Z,25.5
2018-08-10T03:59:13.850Z,25.5
2018-08-10T04:00:18.721Z,25.5
2018-08-10T04:01:23.969Z,25.5
2018-08-10T04:02:28.878Z,25.4
2018-08-10T04:03:34.315Z,25.4
2018-08-10T04:04:39.448Z,25.4
2018-08-10T04:05:44.046Z,25.3
2018-08-10T04:06:49.673Z,25.3
2018-08-10T04:07:54.864Z,25.2
2018-08-10T04:09:00.412Z,25.2
2018-08-10T04:10:05.601Z,25.1
2018-08-10T04:11:10.762Z,25.1
2018-08-10T04:12:15.994Z,25.1
2018-08-10T04:13:21.437Z,25.1
2018-08-10T04:14:26.862Z,25.1
2018-08-10T04:15:32.514Z,25
2018-08-10T04:16:37.431Z,25
2018-08-10T04:17:42.857Z,25
2018-08-10T04:18:48.646Z,24.9
2018-08-10T04:19:53.853Z,24.9
2018-08-10T04:20:58.997Z,24.9
2018-08-10T04:22:04.886Z,24.9
2018-08-10T04:23:10.063Z,24.9
2018-08-10T04:24:14.658Z,24.8
2018-08-10T04:25:20.058Z,24.8
2018-08-10T04:26:25.400Z,24.8
2018-08-10T04:27:30.987Z,24.8
2018-08-10T04:28:36.159Z,24.8
2018-08-10T04:29:41.741Z,24.7
2018-08-10T04:30:47.694Z,24.7
2018-08-10T04:31:52.835Z,24.7
2018-08-10T04:32:58.278Z,24.7
2018-08-10T04:34:03.223Z,24.7
2018-08-10T04:35:07.799Z,24.6
2018-08-10T04:36:13.285Z,24.6
2018-08-10T04:37:18.770Z,24.6
2018-08-10T04:38:23.626Z,24.6
2018-08-10T04:39:29.858Z,24.6
2018-08-10T04:40:35.315Z,24.5
2018-08-10T04:41:40.171Z,24.5
2018-08-10T04:42:46.099Z,24.5
2018-08-10T04:43:51.611Z,24.4
2018-08-10T04:44:56.854Z,24.4
2018-08-10T04:46:02.001Z,24.4
2018-08-10T04:47:06.864Z,24.4
2018-08-10T04:48:11.470Z,24.4
2018-08-10T04:49:17.753Z,24.4
2018-08-10T04:50:22.421Z,24.3
2018-08-10T04:51:27.847Z,24.3
2018-08-10T04:52:33.276Z,24.3
2018-08-10T04:53:38.707Z,24.3
2018-08-10T04:54:44.387Z,24.2
2018-08-10T04:55:49.258Z,24.2
2018-08-10T04:56:54.687Z,24.2
2018-08-10T04:58:00.196Z,24.2
2018-08-10T04:59:05.435Z,24.2
2018-08-10T05:00:10.388Z,24.1
2018-08-10T05:01:15.666Z,24.1
2018-08-10T05:02:21.091Z,24.1
2018-08-10T05:03:26.884Z,24.1
2018-08-10T05:04:31.741Z,24.1
2018-08-10T05:05:36.895Z,24.1
2018-08-10T05:06:42.332Z,24.1
2018-08-10T05:07:47.768Z,24
2018-08-10T05:08:53.202Z,24
2018-08-10T05:09:58.657Z,24
2018-08-10T05:11:04.266Z,24
2018-08-10T05:12:09.774Z,24
2018-08-10T05:13:14.894Z,24
2018-08-10T05:14:19.482Z,24
2018-08-10T05:15:23.781Z,24
2018-08-10T05:16:43.969Z,24
2018-08-10T05:17:49.110Z,24
2018-08-10T05:18:54.512Z,24
2018-08-10T05:19:59.409Z,23.9
2018-08-10T05:21:04.298Z,23.9
2018-08-10T05:22:09.523Z,23.9
2018-08-10T05:23:14.454Z,23.9
2018-08-10T05:24:19.640Z,23.9
2018-08-10T05:25:24.234Z,23.9
2018-08-10T05:26:29.658Z,23.9
2018-08-10T05:27:34.765Z,23.8
2018-08-10T05:28:40.322Z,23.8
2018-08-10T05:29:45.526Z,23.8
2018-08-10T05:30:51.371Z,23.8
2018-08-10T05:31:56.281Z,23.8
2018-08-10T05:33:01.458Z,23.8
2018-08-10T05:34:06.019Z,23.8
2018-08-10T05:35:11.249Z,23.8
2018-08-10T05:36:16.112Z,23.8
2018-08-10T05:37:21.343Z,23.7
2018-08-10T05:38:26.532Z,23.7
2018-08-10T05:39:32.813Z,23.7
2018-08-10T05:40:37.677Z,23.7
2018-08-10T05:41:42.846Z,23.7
2018-08-10T05:42:47.955Z,23.7
2018-08-10T05:43:53.248Z,23.7
2018-08-10T05:44:58.505Z,23.6
2018-08-10T05:46:04.181Z,23.7
2018-08-10T05:47:08.883Z,23.6
2018-08-10T05:48:14.238Z,23.6
2018-08-10T05:49:19.683Z,23.6
2018-08-10T05:50:24.832Z,23.6
2018-08-10T05:51:30.040Z,23.6
2018-08-10T05:52:35.053Z,23.6
2018-08-10T05:53:40.519Z,23.6
2018-08-10T05:54:46.213Z,23.6
2018-08-10T05:55:51.646Z,23.5
2018-08-10T05:56:56.572Z,23.5
2018-08-10T05:58:01.884Z,23.5
2018-08-10T05:59:06.468Z,23.5
2018-08-10T06:00:11.433Z,23.5
2018-08-10T06:01:17.111Z,23.5
2018-08-10T06:02:22.573Z,23.5
2018-08-10T06:03:28.329Z,23.5
2018-08-10T06:04:33.815Z,23.5
2018-08-10T06:05:39.381Z,23.4
2018-08-10T06:06:44.799Z,23.4
2018-08-10T06:07:49.673Z,23.4
2018-08-10T06:08:55.122Z,23.4
2018-08-10T06:10:00.249Z,23.4
2018-08-10T06:11:05.695Z,23.4
